Time;durP1;ratioP1;P1;durP2;ratioP2;P2;SDS_P1;SDS_P2;PMS_P1;PMS_P2;Temp;Humidity;BMP_temperature;BMP_pressure;BME280_temperature;BME280_humidity;BME280_pressure;Samples;Min_cycle;Max_cycle;Signal;HPM_P1;HPM_P2
2021/06/08 00:00:22;;;;;;;25.98;17.42;;;16.60;99.90;;;;;;5072615;28;20077;-81
2021/06/08 00:02:52;;;;;;;27.85;17.92;;;16.70;99.90;;;;;;5076373;28;20081;-81
2021/06/08 00:05:19;;;;;;;25.33;17.30;;;16.70;99.90;;;;;;5093623;28;20036;-81
2021/06/08 00:07:45;;;;;;;26.77;17.42;;;16.70;99.90;;;;;;5067472;28;20028;-81
2021/06/08 00:10:12;;;;;;;25.38;16.92;;;16.60;99.90;;;;;;5094258;28;20036;-80
2021/06/08 00:12:38;;;;;;;25.98;17.77;;;16.60;99.90;;;;;;5075871;28;20053;-80
2021/06/08 00:15:05;;;;;;;25.83;17.60;;;16.70;99.90;;;;;;5084478;28;20092;-81
2021/06/08 00:17:30;;;;;;;24.95;17.55;;;16.60;99.90;;;;;;5058968;28;20717;-81
2021/06/08 00:19:56;;;;;;;26.70;18.73;;;16.70;99.90;;;;;;5078139;28;20075;-80
2021/06/08 00:22:22;;;;;;;26.00;17.52;;;16.60;99.90;;;;;;5059333;28;20448;-81
2021/06/08 00:24:48;;;;;;;26.23;18.13;;;16.60;99.90;;;;;;5073259;28;20025;-81
2021/06/08 00:27:13;;;;;;;27.08;17.85;;;16.70;99.90;;;;;;5075925;28;20036;-81
2021/06/08 00:29:39;;;;;;;26.80;17.77;;;16.60;99.90;;;;;;5059113;28;20036;-80
2021/06/08 00:32:05;;;;;;;26.45;17.35;;;16.60;99.90;;;;;;5059490;28;20039;-81
2021/06/08 00:34:30;;;;;;;24.92;17.27;;;16.60;99.90;;;;;;5068501;28;20036;-81
2021/06/08 00:39:22;;;;;;;25.08;17.63;;;16.60;99.90;;;;;;5065989;22;20045;-85
2021/06/08 00:41:48;;;;;;;28.05;18.38;;;16.60;99.90;;;;;;5052813;28;20334;-85
2021/06/08 00:44:16;;;;;;;26.05;17.88;;;16.60;99.90;;;;;;5053382;28;20020;-85
2021/06/08 00:46:44;;;;;;;25.13;17.23;;;16.60;99.90;;;;;;5053280;28;20074;-85
2021/06/08 00:49:10;;;;;;;24.60;16.88;;;16.60;99.90;;;;;;5059645;28;20078;-85
2021/06/08 00:51:36;;;;;;;27.38;18.10;;;16.60;99.90;;;;;;5053828;28;20071;-85
2021/06/08 00:54:06;;;;;;;25.90;17.77;;;16.60;99.90;;;;;;5069888;28;20036;-85
2021/06/08 00:56:34;;;;;;;28.35;17.20;;;16.60;99.90;;;;;;5074891;28;20020;-84
2021/06/08 00:58:59;;;;;;;26.67;17.50;;;16.60;99.90;;;;;;5074665;28;20016;-85
2021/06/08 01:01:25;;;;;;;25.75;18.02;;;16.70;99.90;;;;;;5066106;28;20017;-84
2021/06/08 01:03:51;;;;;;;28.30;17.70;;;16.50;99.90;;;;;;5069797;28;20021;-85
2021/06/08 01:06:17;;;;;;;27.38;18.67;;;16.50;99.90;;;;;;5053306;28;20017;-84
2021/06/08 01:08:43;;;;;;;27.65;17.73;;;16.50;99.90;;;;;;5053531;28;20065;-85
2021/06/08 01:11:08;;;;;;;27.30;17.02;;;16.60;99.90;;;;;;5053855;28;20036;-85
2021/06/08 01:13:34;;;;;;;26.38;18.60;;;16.40;99.90;;;;;;5052753;28;20021;-84
2021/06/08 01:16:00;;;;;;;30.45;18.10;;;16.30;99.90;;;;;;5069337;28;20473;-86
2021/06/08 01:18:25;;;;;;;29.25;18.27;;;16.30;99.90;;;;;;5060254;28;20461;-86
2021/06/08 01:21:07;;;;;;;23.77;14.95;;;16.40;99.90;;;;;;5062327;28;20029;-85
2021/06/08 01:23:33;;;;;;;21.85;14.82;;;16.40;99.90;;;;;;5052957;28;20029;-85
2021/06/08 01:26:00;;;;;;;23.80;15.43;;;16.30;99.90;;;;;;5069479;28;20029;-86
2021/06/08 01:28:26;;;;;;;20.08;13.23;;;16.30;99.90;;;;;;5051034;28;20028;-86
2021/06/08 01:30:53;;;;;;;18.85;12.70;;;16.30;99.90;;;;;;5051836;28;20156;-85
2021/06/08 01:33:22;;;;;;;17.65;12.55;;;16.40;99.90;;;;;;5050917;28;20017;-85
2021/06/08 01:35:51;;;;;;;17.75;12.00;;;16.60;99.90;;;;;;5071264;28;20028;-85
2021/06/08 01:38:18;;;;;;;18.45;11.82;;;16.30;99.90;;;;;;5073769;28;20090;-86
2021/06/08 01:40:46;;;;;;;18.67;12.32;;;16.40;99.90;;;;;;5061818;28;20124;-86
2021/06/08 01:43:17;;;;;;;19.05;12.25;;;16.40;99.90;;;;;;5052455;28;20031;-86
2021/06/08 01:45:48;;;;;;;18.80;13.18;;;16.40;99.90;;;;;;5062501;28;20025;-86
2021/06/08 01:48:14;;;;;;;17.83;12.35;;;16.40;99.90;;;;;;5072051;28;20040;-85
2021/06/08 01:50:40;;;;;;;18.73;12.32;;;16.20;99.90;;;;;;5072181;28;20183;-86
2021/06/08 01:53:20;;;;;;;19.98;13.05;;;16.50;99.90;;;;;;5072279;28;20506;-86
2021/06/08 01:55:48;;;;;;;21.98;14.77;;;16.40;99.90;;;;;;5052119;28;20493;-85
2021/06/08 01:58:18;;;;;;;24.73;16.30;;;16.50;99.90;;;;;;5052379;28;20032;-85
2021/06/08 02:00:46;;;;;;;23.40;15.27;;;16.40;99.90;;;;;;5051513;28;20052;-85
2021/06/08 02:03:28;;;;;;;20.80;14.45;;;16.40;99.90;;;;;;5053127;28;20550;-86
2021/06/08 02:06:20;;;;;;;26.02;16.00;;;16.40;99.90;;;;;;5054085;28;20025;-86
2021/06/08 02:09:12;;;;;;;24.25;16.33;;;16.40;99.90;;;;;;5053495;28;20025;-86
2021/06/08 02:12:01;;;;;;;27.42;17.70;;;16.50;99.90;;;;;;5051871;28;20052;-85
2021/06/08 02:14:43;;;;;;;26.88;16.85;;;16.50;99.90;;;;;;5053063;28;20474;-86
2021/06/08 02:17:36;;;;;;;29.23;19.08;;;16.50;99.90;;;;;;5051835;28;20562;-85
2021/06/08 02:20:07;;;;;;;29.88;17.80;;;16.50;99.90;;;;;;5053077;28;20028;-85
2021/06/08 02:22:37;;;;;;;27.15;16.98;;;16.40;99.90;;;;;;5059859;28;20024;-86
2021/06/08 02:25:05;;;;;;;25.63;17.50;;;16.40;99.90;;;;;;5073059;28;20134;-86
2021/06/08 02:27:32;;;;;;;26.90;18.65;;;16.40;99.90;;;;;;5071550;28;20504;-86
2021/06/08 02:29:59;;;;;;;28.08;17.90;;;16.50;99.90;;;;;;5071808;28;20032;-86
2021/06/08 02:32:25;;;;;;;26.52;17.90;;;16.40;99.90;;;;;;5059171;28;20033;-85
2021/06/08 02:34:52;;;;;;;29.85;18.70;;;16.50;99.90;;;;;;5065198;28;20023;-86
2021/06/08 02:37:19;;;;;;;27.98;18.80;;;16.50;99.90;;;;;;5072772;28;20033;-85
2021/06/08 02:39:46;;;;;;;29.35;18.35;;;16.50;99.90;;;;;;5068036;28;20032;-85
2021/06/08 02:42:16;;;;;;;27.65;17.67;;;16.50;99.90;;;;;;5051356;28;20017;-86
2021/06/08 02:44:42;;;;;;;27.40;18.33;;;16.50;99.90;;;;;;5068030;28;20021;-86
2021/06/08 02:47:08;;;;;;;26.27;17.42;;;16.40;99.90;;;;;;5073016;28;20088;-86
2021/06/08 02:49:35;;;;;;;26.08;17.65;;;16.40;99.90;;;;;;5067243;28;20036;-86
2021/06/08 02:52:01;;;;;;;30.63;18.85;;;16.40;99.90;;;;;;5053944;28;20060;-86
2021/06/08 02:54:27;;;;;;;30.58;19.20;;;16.40;99.90;;;;;;5071691;28;20029;-85
2021/06/08 02:56:55;;;;;;;31.05;19.33;;;16.40;99.90;;;;;;5070292;28;20025;-85
2021/06/08 02:59:20;;;;;;;29.45;18.65;;;16.40;99.90;;;;;;5063750;28;20040;-86
2021/06/08 03:01:52;;;;;;;28.98;19.00;;;16.40;99.90;;;;;;5067119;28;20037;-86
2021/06/08 03:04:21;;;;;;;31.95;20.67;;;16.40;99.90;;;;;;5049919;28;20020;-86
2021/06/08 03:06:59;;;;;;;28.00;19.73;;;16.40;99.90;;;;;;5052253;28;20036;-86
2021/06/08 03:09:32;;;;;;;31.15;19.55;;;16.40;99.90;;;;;;5050837;28;20025;-86
2021/06/08 03:12:00;;;;;;;29.70;19.48;;;16.40;99.90;;;;;;5051816;28;20037;-86
2021/06/08 03:14:27;;;;;;;31.38;20.05;;;16.40;99.90;;;;;;5066571;28;20044;-86
2021/06/08 03:16:59;;;;;;;30.67;19.73;;;16.40;99.90;;;;;;5050478;28;20500;-86
2021/06/08 03:19:26;;;;;;;;;;;16.40;99.90;;;;;;5066919;28;20500;-85
2021/06/08 03:21:56;;;;;;;29.92;18.98;;;16.40;99.90;;;;;;5051503;28;19909;-85
2021/06/08 03:24:25;;;;;;;35.40;21.02;;;16.40;99.90;;;;;;5049471;28;20564;-85
2021/06/08 03:26:52;;;;;;;34.63;21.83;;;16.40;99.90;;;;;;5068976;28;20039;-86
2021/06/08 03:29:19;;;;;;;32.92;20.77;;;16.40;99.90;;;;;;5065779;28;20120;-85
2021/06/08 03:31:47;;;;;;;32.97;20.42;;;16.40;99.90;;;;;;5067131;28;20500;-85
2021/06/08 03:34:15;;;;;;;30.95;20.15;;;16.40;99.90;;;;;;5070962;28;20499;-86
2021/06/08 03:36:48;;;;;;;31.27;20.40;;;16.40;99.90;;;;;;5051709;28;20021;-86
2021/06/08 03:39:15;;;;;;;29.80;20.77;;;16.40;99.90;;;;;;5064864;28;20116;-86
2021/06/08 03:41:43;;;;;;;34.42;21.15;;;16.30;99.90;;;;;;5051705;28;20108;-86
2021/06/08 03:44:11;;;;;;;29.38;19.05;;;16.30;99.90;;;;;;5050239;28;20021;-85
2021/06/08 03:46:37;;;;;;;35.03;20.60;;;16.30;99.90;;;;;;5065935;28;20031;-85
2021/06/08 03:49:03;;;;;;;32.83;20.58;;;16.30;99.90;;;;;;5052017;28;20025;-86
2021/06/08 03:51:32;;;;;;;30.75;19.83;;;16.30;99.90;;;;;;5063215;28;20051;-85
2021/06/08 03:53:59;;;;;;;33.78;21.27;;;16.30;99.90;;;;;;5097988;28;20025;-85
2021/06/08 03:56:25;;;;;;;33.92;20.60;;;16.30;99.90;;;;;;5074882;28;20117;-85
2021/06/08 03:58:54;;;;;;;30.25;20.60;;;16.30;99.90;;;;;;5056982;28;20090;-86
2021/06/08 04:01:21;;;;;;;31.90;20.58;;;16.40;99.90;;;;;;5055499;28;20120;-85
2021/06/08 04:03:49;;;;;;;30.33;19.90;;;16.30;99.90;;;;;;5051478;28;20021;-84
2021/06/08 04:06:16;;;;;;;31.73;21.65;;;16.40;99.90;;;;;;5066479;28;20079;-85
2021/06/08 04:08:42;;;;;;;33.65;21.23;;;16.40;99.90;;;;;;5050848;28;20047;-86
2021/06/08 04:11:10;;;;;;;34.35;21.67;;;16.40;99.90;;;;;;5051233;28;20021;-86
2021/06/08 04:13:40;;;;;;;32.65;21.02;;;16.40;99.90;;;;;;5059204;28;20107;-85
2021/06/08 04:16:06;;;;;;;31.33;20.95;;;16.40;99.90;;;;;;5049501;28;20086;-86
2021/06/08 04:18:33;;;;;;;33.38;20.15;;;16.40;99.90;;;;;;5049234;28;20029;-85
2021/06/08 04:20:59;;;;;;;32.55;21.20;;;16.40;99.90;;;;;;5049119;28;20029;-85
2021/06/08 04:23:26;;;;;;;32.67;21.00;;;16.40;99.90;;;;;;5048944;28;20051;-85
2021/06/08 04:25:53;;;;;;;32.08;21.13;;;16.40;99.90;;;;;;5049339;28;20392;-85
2021/06/08 04:28:20;;;;;;;30.55;19.30;;;16.40;99.90;;;;;;5050375;28;20028;-86
2021/06/08 04:30:47;;;;;;;33.95;21.67;;;16.40;99.90;;;;;;5062807;28;20035;-85
2021/06/08 04:33:13;;;;;;;33.08;20.50;;;16.40;99.90;;;;;;5063404;28;20021;-86
2021/06/08 04:35:41;;;;;;;32.00;19.95;;;16.40;99.90;;;;;;5062409;28;20020;-86
2021/06/08 04:38:07;;;;;;;33.53;20.80;;;16.40;99.90;;;;;;5060529;28;20180;-85
2021/06/08 04:40:35;;;;;;;34.88;21.38;;;16.20;99.90;;;;;;5051291;28;20544;-85
2021/06/08 04:43:04;;;;;;;29.52;20.15;;;16.40;99.90;;;;;;5052036;28;20047;-86
2021/06/08 04:45:30;;;;;;;31.60;20.48;;;16.40;99.90;;;;;;5055936;28;20024;-85
2021/06/08 04:47:57;;;;;;;33.50;21.33;;;16.40;99.90;;;;;;5071679;28;20028;-84
2021/06/08 04:50:22;;;;;;;34.10;21.35;;;16.30;99.90;;;;;;5084332;28;20016;-85
2021/06/08 04:52:55;;;;;;;30.67;20.30;;;16.40;99.90;;;;;;5084980;28;20024;-86
2021/06/08 04:55:23;;;;;;;33.30;21.02;;;16.40;99.90;;;;;;5079361;28;20028;-85
2021/06/08 04:57:50;;;;;;;30.15;19.88;;;16.40;99.90;;;;;;5079244;28;20028;-85
2021/06/08 05:00:20;;;;;;;30.10;19.73;;;16.50;99.90;;;;;;5087415;28;20027;-85
2021/06/08 05:02:59;;;;;;;30.08;20.45;;;16.50;99.90;;;;;;5087651;28;20070;-84
2021/06/08 05:05:31;;;;;;;31.92;20.30;;;16.50;99.90;;;;;;5079983;28;20048;-84
2021/06/08 05:08:21;;;;;;;30.58;20.75;;;16.60;99.90;;;;;;5075701;28;20032;-84
2021/06/08 05:10:51;;;;;;;30.63;18.65;;;16.60;99.90;;;;;;5064626;28;20032;-85
2021/06/08 05:13:19;;;;;;;33.17;20.52;;;16.60;99.90;;;;;;5070349;28;20070;-83
2021/06/08 05:15:45;;;;;;;27.88;19.50;;;16.60;99.90;;;;;;5075088;28;20139;-84
2021/06/08 05:18:14;;;;;;;30.33;20.00;;;16.60;99.90;;;;;;5064058;28;20041;-85
2021/06/08 05:20:43;;;;;;;28.30;19.05;;;16.60;99.90;;;;;;5083515;28;20047;-84
2021/06/08 05:23:09;;;;;;;32.28;20.35;;;16.60;99.90;;;;;;5076785;28;20028;-87
2021/06/08 05:25:37;;;;;;;33.75;20.80;;;16.50;99.90;;;;;;5078303;28;20054;-84
2021/06/08 05:28:04;;;;;;;30.85;20.63;;;16.60;99.90;;;;;;5083650;28;20027;-85
2021/06/08 05:30:30;;;;;;;32.60;20.42;;;16.60;99.90;;;;;;5085982;28;20182;-85
2021/06/08 05:32:56;;;;;;;30.85;20.80;;;16.60;99.90;;;;;;5083705;28;20401;-86
2021/06/08 05:35:28;;;;;;;31.63;20.23;;;16.60;99.90;;;;;;5081445;28;20031;-85
2021/06/08 05:38:01;;;;;;;30.90;19.47;;;16.60;99.90;;;;;;5087535;28;20055;-86
2021/06/08 05:40:26;;;;;;;31.55;20.63;;;16.60;99.90;;;;;;5086092;28;20111;-86
2021/06/08 05:42:52;;;;;;;30.27;20.65;;;16.60;99.90;;;;;;5074007;28;20115;-84
2021/06/08 05:45:18;;;;;;;31.77;20.10;;;16.60;99.90;;;;;;5070126;28;20107;-85
2021/06/08 05:47:43;;;;;;;34.15;21.00;;;16.60;99.90;;;;;;5080055;28;20382;-85
2021/06/08 05:50:10;;;;;;;31.55;20.80;;;16.60;99.90;;;;;;5083748;28;20488;-86
2021/06/08 05:52:38;;;;;;;29.08;20.02;;;16.60;99.90;;;;;;5085533;28;20107;-85
2021/06/08 05:55:05;;;;;;;31.90;20.52;;;16.70;99.90;;;;;;5085460;28;20032;-85
2021/06/08 05:57:30;;;;;;;35.67;20.25;;;16.70;99.90;;;;;;5070747;28;20016;-85
2021/06/08 05:59:57;;;;;;;30.15;20.05;;;16.70;99.90;;;;;;5057208;28;20102;-86
2021/06/08 06:02:24;;;;;;;31.58;20.90;;;16.70;99.90;;;;;;5050631;28;20051;-86
2021/06/08 06:04:50;;;;;;;30.95;21.23;;;16.60;99.90;;;;;;5063665;28;20029;-85
2021/06/08 06:07:17;;;;;;;30.85;19.88;;;16.70;99.90;;;;;;5065371;28;20063;-85
2021/06/08 06:09:43;;;;;;;31.08;20.10;;;16.70;99.90;;;;;;5072160;28;20029;-86
2021/06/08 06:12:10;;;;;;;31.17;20.10;;;16.70;99.90;;;;;;5082304;28;20115;-86
2021/06/08 06:14:36;;;;;;;28.67;20.85;;;16.80;99.90;;;;;;5071201;28;20031;-85
2021/06/08 06:17:04;;;;;;;29.55;20.05;;;16.80;99.90;;;;;;5085778;28;20617;-86
2021/06/08 06:19:30;;;;;;;31.73;21.02;;;16.80;99.90;;;;;;5079426;28;20025;-86
2021/06/08 06:21:57;;;;;;;28.50;19.95;;;16.80;99.90;;;;;;5067826;28;20032;-85
2021/06/08 06:24:26;;;;;;;31.10;20.17;;;16.70;99.90;;;;;;5075179;28;20028;-86
2021/06/08 06:26:52;;;;;;;31.70;19.73;;;16.70;99.90;;;;;;5062099;28;20048;-86
2021/06/08 06:29:18;;;;;;;29.88;18.77;;;16.70;99.90;;;;;;5064659;28;20102;-86
2021/06/08 06:31:49;;;;;;;31.30;19.33;;;16.70;99.90;;;;;;5070467;28;20029;-86
2021/06/08 06:34:17;;;;;;;33.22;19.90;;;16.70;99.90;;;;;;5073413;28;20051;-89
2021/06/08 06:36:46;;;;;;;29.42;19.33;;;16.70;99.90;;;;;;5084368;28;20020;-87
2021/06/08 06:39:22;;;;;;;28.10;19.38;;;16.80;99.90;;;;;;5083739;28;20073;-88
2021/06/08 06:41:50;;;;;;;28.15;19.10;;;16.80;99.90;;;;;;5081792;28;20117;-87
2021/06/08 06:44:21;;;;;;;29.90;19.38;;;16.90;99.90;;;;;;5069678;28;20361;-85
2021/06/08 06:46:48;;;;;;;31.20;20.35;;;16.80;99.90;;;;;;5085074;28;20063;-85
2021/06/08 06:49:13;;;;;;;27.25;18.48;;;16.90;99.90;;;;;;5075219;28;20020;-85
2021/06/08 06:51:45;;;;;;;32.80;20.77;;;16.90;99.90;;;;;;5074254;28;20103;-88
2021/06/08 06:54:11;;;;;;;26.33;18.55;;;17.00;99.90;;;;;;5057727;28;20035;-85
2021/06/08 06:56:39;;;;;;;29.77;20.30;;;17.00;99.90;;;;;;5054925;28;20037;-86
2021/06/08 06:59:06;;;;;;;26.27;18.38;;;17.00;99.90;;;;;;5058646;28;20021;-85
2021/06/08 07:01:34;;;;;;;29.25;19.48;;;17.00;99.90;;;;;;5035826;28;20562;-85
2021/06/08 07:04:03;;;;;;;28.95;19.23;;;17.00;99.90;;;;;;5075521;28;20033;-86
2021/06/08 07:06:30;;;;;;;26.83;19.45;;;17.00;99.90;;;;;;5059253;28;20158;-86
2021/06/08 07:09:03;;;;;;;28.58;19.38;;;17.00;99.90;;;;;;5050963;28;20017;-86
2021/06/08 07:11:33;;;;;;;28.80;18.30;;;17.00;99.90;;;;;;5050581;28;20043;-86
2021/06/08 07:14:00;;;;;;;30.38;19.13;;;17.10;99.90;;;;;;5073427;28;20020;-86
2021/06/08 07:16:27;;;;;;;26.23;19.30;;;17.10;99.90;;;;;;5071868;28;20091;-86
2021/06/08 07:18:53;;;;;;;29.75;20.40;;;17.10;99.90;;;;;;5075612;28;20040;-86
2021/06/08 07:21:21;;;;;;;31.23;19.77;;;17.10;99.90;;;;;;5059177;28;20087;-85
2021/06/08 07:23:52;;;;;;;30.80;19.83;;;17.10;99.90;;;;;;5049085;28;20112;-85
2021/06/08 07:26:20;;;;;;;29.50;19.70;;;17.10;99.90;;;;;;5055394;28;20016;-86
2021/06/08 07:28:47;;;;;;;28.20;18.95;;;17.10;99.90;;;;;;5077490;28;20418;-86
2021/06/08 07:31:25;;;;;;;29.92;17.98;;;17.20;99.90;;;;;;5068393;28;20085;-86
2021/06/08 07:33:57;;;;;;;30.52;19.15;;;17.30;99.90;;;;;;5075062;28;20070;-86
2021/06/08 07:36:28;;;;;;;29.25;19.10;;;17.30;99.90;;;;;;5073691;28;20048;-86
2021/06/08 07:39:02;;;;;;;28.20;18.38;;;17.40;99.90;;;;;;5071850;28;20037;-87
2021/06/08 07:41:47;;;;;;;33.60;19.58;;;17.30;99.90;;;;;;5068940;28;20031;-89
2021/06/08 07:44:24;;;;;;;27.05;18.65;;;17.40;99.90;;;;;;5081649;28;20356;-86
2021/06/08 07:46:50;;;;;;;29.27;19.08;;;17.40;99.90;;;;;;5066869;28;20041;-86
2021/06/08 07:49:18;;;;;;;28.65;18.88;;;17.50;99.90;;;;;;5073878;28;20046;-87
2021/06/08 07:51:44;;;;;;;29.65;18.92;;;17.60;99.90;;;;;;5080767;28;20020;-88
2021/06/08 07:54:11;;;;;;;28.13;18.38;;;17.80;99.90;;;;;;5075548;28;20035;-87
2021/06/08 07:56:38;;;;;;;27.63;19.02;;;17.60;99.90;;;;;;5067602;28;20027;-86
2021/06/08 07:59:04;;;;;;;26.92;18.00;;;17.80;99.90;;;;;;5065443;28;20116;-87
2021/06/08 08:01:30;;;;;;;26.75;18.45;;;17.70;99.90;;;;;;5072634;28;20055;-88
2021/06/08 08:03:56;;;;;;;32.05;19.58;;;17.80;99.90;;;;;;5063073;28;20060;-87
2021/06/08 08:06:24;;;;;;;29.17;18.25;;;17.70;99.90;;;;;;5066492;28;20074;-87
2021/06/08 08:08:50;;;;;;;29.50;18.52;;;17.60;99.90;;;;;;5083959;28;20028;-87
2021/06/08 08:11:18;;;;;;;28.98;18.60;;;17.60;99.90;;;;;;5086404;28;20437;-88
2021/06/08 08:13:52;;;;;;;30.13;18.73;;;17.60;99.90;;;;;;5075410;28;20174;-87
2021/06/08 08:16:19;;;;;;;28.77;18.23;;;17.60;99.90;;;;;;5071969;28;20107;-87
2021/06/08 08:18:46;;;;;;;26.90;18.52;;;17.60;99.90;;;;;;5073514;28;20024;-87
2021/06/08 08:21:14;;;;;;;26.73;19.15;;;17.50;99.90;;;;;;5069020;28;20119;-87
2021/06/08 08:23:41;;;;;;;31.00;19.08;;;17.60;99.90;;;;;;5061438;28;20033;-87
2021/06/08 08:26:08;;;;;;;27.88;18.15;;;17.60;99.90;;;;;;5066507;28;20058;-87
2021/06/08 08:28:36;;;;;;;29.20;19.02;;;17.50;99.90;;;;;;5068802;28;20028;-88
2021/06/08 08:31:05;;;;;;;29.23;18.95;;;17.50;99.90;;;;;;5065150;28;20055;-87
2021/06/08 08:33:31;;;;;;;28.77;18.92;;;17.80;99.90;;;;;;5050780;28;20052;-87
2021/06/08 08:35:57;;;;;;;29.35;18.92;;;17.60;99.90;;;;;;5068722;28;20436;-87
2021/06/08 08:38:23;;;;;;;29.02;18.88;;;17.70;99.90;;;;;;5071447;28;20056;-88
2021/06/08 08:40:51;;;;;;;29.35;20.25;;;17.70;99.90;;;;;;5068173;28;20146;-87
2021/06/08 08:43:18;;;;;;;29.33;19.70;;;17.80;99.90;;;;;;5052674;28;20230;-88
2021/06/08 08:45:44;;;;;;;30.52;19.80;;;17.80;99.90;;;;;;5051315;28;20050;-86
2021/06/08 08:48:09;;;;;;;29.27;20.08;;;17.90;99.90;;;;;;5052551;28;20115;-87
2021/06/08 08:50:35;;;;;;;31.98;20.55;;;18.20;99.90;;;;;;5051414;28;20513;-87
2021/06/08 08:53:04;;;;;;;30.13;19.98;;;18.20;99.90;;;;;;5050992;28;20048;-86
2021/06/08 08:55:32;;;;;;;32.00;20.25;;;18.10;99.90;;;;;;5069055;28;20036;-89
2021/06/08 08:58:01;;;;;;;31.10;20.90;;;18.10;99.90;;;;;;5071520;28;20052;-87
2021/06/08 09:00:29;;;;;;;29.88;20.67;;;18.20;99.90;;;;;;5077798;28;20607;-87
2021/06/08 09:02:57;;;;;;;31.15;20.60;;;18.10;99.90;;;;;;5084407;28;20039;-87
2021/06/08 09:05:24;;;;;;;32.30;21.33;;;18.10;99.90;;;;;;5064210;28;20394;-87
2021/06/08 09:07:53;;;;;;;29.77;20.85;;;18.20;99.90;;;;;;5069474;28;20043;-88
2021/06/08 09:10:21;;;;;;;33.15;20.67;;;18.10;99.90;;;;;;5071879;28;20033;-87
2021/06/08 09:12:47;;;;;;;32.30;20.30;;;18.20;99.90;;;;;;5074406;28;20056;-87
2021/06/08 09:15:13;;;;;;;31.80;21.25;;;18.10;99.90;;;;;;5084567;28;20432;-87
2021/06/08 09:17:40;;;;;;;30.15;20.42;;;18.20;99.90;;;;;;5063430;28;20035;-87
2021/06/08 09:20:10;;;;;;;31.42;21.33;;;18.20;99.90;;;;;;5071550;28;20020;-87
2021/06/08 09:22:56;;;;;;;32.20;22.27;;;18.20;99.90;;;;;;5080060;28;20036;-85
2021/06/08 09:25:37;;;;;;;29.67;21.17;;;18.40;99.90;;;;;;5082520;28;20032;-85
2021/06/08 09:28:31;;;;;;;31.92;21.13;;;18.60;99.90;;;;;;5081782;28;20024;-86
2021/06/08 09:31:08;;;;;;;33.35;20.85;;;18.70;99.90;;;;;;5072487;28;20036;-86
2021/06/08 09:33:39;;;;;;;29.95;19.92;;;18.90;99.90;;;;;;5077349;28;20472;-85
2021/06/08 09:36:12;;;;;;;29.83;20.25;;;19.00;99.90;;;;;;5075489;28;20031;-85
2021/06/08 09:38:56;;;;;;;31.13;21.35;;;19.00;99.90;;;;;;5091286;28;20028;-85
2021/06/08 09:41:26;;;;;;;30.58;21.05;;;19.10;99.90;;;;;;5091037;28;20020;-85
2021/06/08 09:44:10;;;;;;;32.53;21.80;;;19.30;99.90;;;;;;5087570;28;20091;-86
2021/06/08 09:46:57;;;;;;;30.25;21.33;;;19.40;99.90;;;;;;5082360;28;20024;-85
2021/06/08 09:49:31;;;;;;;28.50;20.90;;;19.50;99.90;;;;;;5086069;28;20028;-86
2021/06/08 09:52:06;;;;;;;27.30;19.42;;;19.60;99.90;;;;;;5066749;28;20027;-87
2021/06/08 09:54:43;;;;;;;28.35;19.42;;;19.80;99.90;;;;;;5101365;28;20070;-86
2021/06/08 09:57:26;;;;;;;28.67;19.75;;;19.90;99.90;;;;;;5085090;28;20117;-85
2021/06/08 09:59:56;;;;;;;27.00;19.20;;;19.80;99.90;;;;;;5085824;28;20016;-85
2021/06/08 10:02:28;;;;;;;26.88;20.00;;;19.80;99.90;;;;;;5075684;28;20021;-87
2021/06/08 10:05:16;;;;;;;25.95;18.75;;;20.00;99.90;;;;;;5069297;28;20384;-86
2021/06/08 10:07:42;;;;;;;28.17;19.50;;;20.10;99.90;;;;;;5066553;28;20029;-86
2021/06/08 10:10:09;;;;;;;28.00;20.48;;;20.10;99.90;;;;;;5076370;28;20054;-86
2021/06/08 10:13:02;;;;;;;27.70;18.98;;;20.20;99.90;;;;;;5080900;28;20024;-87
2021/06/08 10:15:33;;;;;;;25.65;19.23;;;20.30;99.90;;;;;;5059803;28;20036;-86
2021/06/08 10:18:08;;;;;;;28.63;19.73;;;20.40;99.90;;;;;;5065993;28;20476;-85
2021/06/08 10:20:52;;;;;;;26.15;18.98;;;20.60;99.90;;;;;;5078011;28;20399;-86
2021/06/08 10:23:22;;;;;;;25.85;19.13;;;20.70;99.90;;;;;;5063095;28;20051;-85
2021/06/08 10:25:56;;;;;;;23.65;17.10;;;20.70;99.90;;;;;;5055614;28;20025;-86
2021/06/08 10:28:22;;;;;;;24.10;17.65;;;20.70;99.90;;;;;;5062781;28;20098;-86
2021/06/08 10:30:49;;;;;;;25.30;17.88;;;20.70;99.90;;;;;;5070717;28;20476;-85
2021/06/08 10:33:15;;;;;;;23.95;17.48;;;20.70;99.90;;;;;;5070857;28;20480;-86
2021/06/08 10:35:42;;;;;;;26.58;17.52;;;20.80;99.90;;;;;;5055201;28;20457;-85
2021/06/08 10:38:08;;;;;;;26.20;17.95;;;20.90;99.90;;;;;;5061161;28;20033;-85
2021/06/08 10:40:36;;;;;;;22.27;17.13;;;20.80;99.90;;;;;;5071945;28;20027;-86
2021/06/08 10:43:03;;;;;;;26.00;18.52;;;20.80;99.90;;;;;;5079116;28;20119;-86
2021/06/08 10:45:37;;;;;;;24.58;17.20;;;20.80;99.90;;;;;;5080718;28;20070;-86
2021/06/08 10:48:28;;;;;;;25.40;17.35;;;20.90;99.90;;;;;;5067858;28;20025;-85
2021/06/08 10:51:10;;;;;;;26.23;18.67;;;20.80;99.90;;;;;;5070576;28;20360;-85
2021/06/08 10:53:39;;;;;;;23.30;16.85;;;20.90;99.90;;;;;;5067745;28;20059;-86
2021/06/08 10:56:37;;;;;;;23.13;16.88;;;21.10;99.90;;;;;;5055167;28;20106;-87
2021/06/08 10:59:05;;;;;;;22.58;16.38;;;21.20;99.90;;;;;;5069958;28;20106;-86
2021/06/08 11:01:49;;;;;;;22.20;17.38;;;21.30;99.90;;;;;;5078157;28;20028;-86
2021/06/08 11:04:24;;;;;;;23.40;16.73;;;21.30;99.90;;;;;;5068595;28;20020;-86
2021/06/08 11:06:53;;;;;;;20.77;16.13;;;21.30;99.90;;;;;;5083534;28;20050;-86
2021/06/08 11:09:31;;;;;;;21.55;16.98;;;21.30;99.90;;;;;;5069134;28;20609;-86
2021/06/08 11:12:01;;;;;;;24.45;18.05;;;21.40;99.90;;;;;;5078799;28;20028;-86
2021/06/08 11:14:30;;;;;;;23.70;17.30;;;21.30;99.90;;;;;;5069416;28;20082;-89
2021/06/08 11:17:07;;;;;;;23.83;17.33;;;21.40;99.90;;;;;;5074868;28;20020;-86
2021/06/08 11:19:45;;;;;;;23.70;16.95;;;21.30;99.90;;;;;;5081005;28;20496;-85
2021/06/08 11:22:13;;;;;;;22.77;17.20;;;21.20;99.90;;;;;;5079676;28;20023;-86
2021/06/08 11:24:40;;;;;;;23.98;17.60;;;21.10;99.90;;;;;;5083177;28;20031;-85
2021/06/08 11:27:07;;;;;;;23.48;17.38;;;21.00;99.90;;;;;;5071851;28;20140;-85
2021/06/08 11:29:59;;;;;;;24.15;18.80;;;21.00;99.90;;;;;;5057257;28;20148;-86
2021/06/08 11:32:28;;;;;;;21.60;15.98;;;21.00;99.90;;;;;;5066701;28;20029;-85
2021/06/08 11:35:17;;;;;;;22.08;16.30;;;21.10;99.90;;;;;;5060103;28;20124;-86
2021/06/08 11:37:48;;;;;;;20.85;16.02;;;21.10;99.90;;;;;;5051463;28;20032;-86
2021/06/08 11:40:35;;;;;;;20.92;16.42;;;21.20;99.90;;;;;;5063063;28;20527;-86
2021/06/08 11:43:10;;;;;;;21.15;15.93;;;21.30;99.90;;;;;;5079395;28;20028;-85
2021/06/08 11:45:45;;;;;;;21.25;15.68;;;21.50;99.90;;;;;;5063299;28;20112;-86
2021/06/08 11:48:32;;;;;;;21.95;16.35;;;21.40;99.90;;;;;;5073206;28;20048;-86
2021/06/08 11:50:59;;;;;;;20.85;15.63;;;21.60;99.90;;;;;;5076055;28;20492;-86
2021/06/08 11:53:25;;;;;;;20.25;15.45;;;21.70;99.90;;;;;;5087260;28;20111;-86
2021/06/08 11:56:08;;;;;;;22.15;16.77;;;22.00;99.90;;;;;;5086222;28;20116;-86
2021/06/08 11:58:38;;;;;;;21.15;16.20;;;22.20;99.90;;;;;;5069709;28;20057;-87
2021/06/08 12:01:07;;;;;;;21.30;16.40;;;22.40;99.90;;;;;;5067379;28;20037;-85
2021/06/08 12:03:35;;;;;;;21.08;15.65;;;22.70;99.90;;;;;;5076319;28;20258;-87
2021/06/08 12:06:03;;;;;;;20.63;15.50;;;22.90;99.90;;;;;;5083303;28;20020;-87
2021/06/08 12:08:32;;;;;;;21.83;16.27;;;22.90;99.90;;;;;;5085685;28;20020;-87
2021/06/08 12:11:17;;;;;;;22.50;16.77;;;23.00;99.90;;;;;;5072056;28;20399;-87
2021/06/08 12:13:43;;;;;;;21.77;15.65;;;22.90;99.90;;;;;;5089895;28;20028;-85
2021/06/08 12:16:17;;;;;;;18.48;14.57;;;23.30;99.90;;;;;;5070246;28;20046;-85
2021/06/08 12:18:43;;;;;;;20.55;15.55;;;23.50;99.90;;;;;;5091980;28;20027;-85
2021/06/08 12:21:17;;;;;;;17.75;13.93;;;23.80;99.90;;;;;;5080733;28;20059;-85
2021/06/08 12:23:43;;;;;;;22.42;15.68;;;23.90;99.90;;;;;;5090218;28;20018;-87
2021/06/08 12:26:20;;;;;;;21.45;15.05;;;24.00;99.90;;;;;;5082804;28;20082;-86
2021/06/08 12:29:04;;;;;;;19.25;15.10;;;23.90;99.90;;;;;;5071118;28;20020;-85
2021/06/08 12:31:30;;;;;;;17.73;13.88;;;23.80;99.90;;;;;;5069932;28;20052;-86
2021/06/08 12:33:57;;;;;;;19.25;15.85;;;23.80;99.90;;;;;;5058445;28;20108;-86
2021/06/08 12:36:24;;;;;;;21.25;15.30;;;23.60;99.90;;;;;;5077647;28;20101;-86
2021/06/08 12:38:57;;;;;;;19.30;14.50;;;23.40;99.90;;;;;;5082164;28;20440;-86
2021/06/08 12:41:26;;;;;;;19.00;14.27;;;23.10;99.90;;;;;;5062429;28;20052;-85
2021/06/08 12:43:55;;;;;;;17.52;13.43;;;23.00;99.90;;;;;;5088402;28;20016;-86